sensor_id;sensor_type;location;lat;lon;timestamp;temperature;humidity
74617;DHT22;63123;50.906;4.198;2023-09-12T00:01:23;21.80;81.30
74617;DHT22;63123;50.906;4.198;2023-09-12T00:03:49;21.70;81.20
74617;DHT22;63123;50.906;4.198;2023-09-12T00:06:15;21.80;81.30
74617;DHT22;63123;50.906;4.198;2023-09-12T00:08:41;21.70;81.30
74617;DHT22;63123;50.906;4.198;2023-09-12T00:11:09;21.80;81.30
74617;DHT22;63123;50.906;4.198;2023-09-12T00:13:38;21.70;81.30
74617;DHT22;63123;50.906;4.198;2023-09-12T00:16:04;21.80;81.30
74617;DHT22;63123;50.906;4.198;2023-09-12T00:18:35;21.70;81.20
74617;DHT22;63123;50.906;4.198;2023-09-12T00:21:01;21.70;81.20
74617;DHT22;63123;50.906;4.198;2023-09-12T00:23:27;21.70;81.20
74617;DHT22;63123;50.906;4.198;2023-09-12T00:25:53;21.70;81.20
74617;DHT22;63123;50.906;4.198;2023-09-12T00:28:19;21.70;81.20
74617;DHT22;63123;50.906;4.198;2023-09-12T00:30:45;21.70;81.20
74617;DHT22;63123;50.906;4.198;2023-09-12T00:33:11;21.70;81.20
74617;DHT22;63123;50.906;4.198;2023-09-12T00:35:36;21.70;81.20
74617;DHT22;63123;50.906;4.198;2023-09-12T00:38:02;21.70;81.20
74617;DHT22;63123;50.906;4.198;2023-09-12T00:40:28;21.70;81.20
74617;DHT22;63123;50.906;4.198;2023-09-12T00:42:54;21.70;81.20
74617;DHT22;63123;50.906;4.198;2023-09-12T00:45:20;21.70;81.20
74617;DHT22;63123;50.906;4.198;2023-09-12T00:47:46;21.80;81.30
74617;DHT22;63123;50.906;4.198;2023-09-12T00:50:13;21.70;81.20
74617;DHT22;63123;50.906;4.198;2023-09-12T00:52:40;21.70;81.30
74617;DHT22;63123;50.906;4.198;2023-09-12T00:55:08;21.80;81.30
74617;DHT22;63123;50.906;4.198;2023-09-12T00:57:34;21.70;81.20
74617;DHT22;63123;50.906;4.198;2023-09-12T01:00:03;21.70;81.30
74617;DHT22;63123;50.906;4.198;2023-09-12T01:05:14;21.70;81.30
74617;DHT22;63123;50.906;4.198;2023-09-12T01:07:42;21.70;81.30
74617;DHT22;63123;50.906;4.198;2023-09-12T01:10:08;21.70;81.20
74617;DHT22;63123;50.906;4.198;2023-09-12T01:12:34;21.70;81.30
74617;DHT22;63123;50.906;4.198;2023-09-12T01:15:00;21.70;81.50
74617;DHT22;63123;50.906;4.198;2023-09-12T01:17:26;21.70;81.30
74617;DHT22;63123;50.906;4.198;2023-09-12T01:19:53;21.70;81.30
74617;DHT22;63123;50.906;4.198;2023-09-12T01:27:42;21.70;81.20
74617;DHT22;63123;50.906;4.198;2023-09-12T01:30:10;21.70;81.30
74617;DHT22;63123;50.906;4.198;2023-09-12T01:32:36;21.70;81.30
74617;DHT22;63123;50.906;4.198;2023-09-12T01:35:03;21.70;81.30
74617;DHT22;63123;50.906;4.198;2023-09-12T01:37:32;21.70;81.30
74617;DHT22;63123;50.906;4.198;2023-09-12T01:39:58;21.70;81.30
74617;DHT22;63123;50.906;4.198;2023-09-12T01:42:24;21.70;81.30
74617;DHT22;63123;50.906;4.198;2023-09-12T01:44:55;21.70;81.30
74617;DHT22;63123;50.906;4.198;2023-09-12T01:47:22;21.70;81.30
74617;DHT22;63123;50.906;4.198;2023-09-12T01:49:51;21.70;81.20
74617;DHT22;63123;50.906;4.198;2023-09-12T01:52:18;21.70;81.30
74617;DHT22;63123;50.906;4.198;2023-09-12T01:54:45;21.70;81.30
74617;DHT22;63123;50.906;4.198;2023-09-12T01:57:11;21.70;81.30
74617;DHT22;63123;50.906;4.198;2023-09-12T01:59:38;21.70;81.20
74617;DHT22;63123;50.906;4.198;2023-09-12T02:02:03;21.70;81.20
74617;DHT22;63123;50.906;4.198;2023-09-12T02:04:29;21.70;81.20
74617;DHT22;63123;50.906;4.198;2023-09-12T02:06:54;21.70;81.30
74617;DHT22;63123;50.906;4.198;2023-09-12T02:09:20;21.70;81.30
74617;DHT22;63123;50.906;4.198;2023-09-12T02:11:48;21.70;81.30
74617;DHT22;63123;50.906;4.198;2023-09-12T02:14:14;21.70;81.30
74617;DHT22;63123;50.906;4.198;2023-09-12T02:16:39;21.70;81.30
74617;DHT22;63123;50.906;4.198;2023-09-12T02:19:05;21.70;81.20
74617;DHT22;63123;50.906;4.198;2023-09-12T02:21:31;21.80;81.30
74617;DHT22;63123;50.906;4.198;2023-09-12T02:23:57;21.70;81.30
74617;DHT22;63123;50.906;4.198;2023-09-12T02:26:23;21.70;81.20
74617;DHT22;63123;50.906;4.198;2023-09-12T02:28:48;21.70;81.20
74617;DHT22;63123;50.906;4.198;2023-09-12T02:31:14;21.70;81.20
74617;DHT22;63123;50.906;4.198;2023-09-12T02:33:40;21.70;81.20
74617;DHT22;63123;50.906;4.198;2023-09-12T02:36:06;21.70;81.20
74617;DHT22;63123;50.906;4.198;2023-09-12T02:38:32;21.70;81.20
74617;DHT22;63123;50.906;4.198;2023-09-12T02:40:58;21.70;81.20
74617;DHT22;63123;50.906;4.198;2023-09-12T02:43:23;21.70;81.20
74617;DHT22;63123;50.906;4.198;2023-09-12T02:45:49;21.70;81.20
74617;DHT22;63123;50.906;4.198;2023-09-12T02:48:15;21.70;81.20
74617;DHT22;63123;50.906;4.198;2023-09-12T02:50:40;21.70;81.20
74617;DHT22;63123;50.906;4.198;2023-09-12T02:53:06;21.80;81.20
74617;DHT22;63123;50.906;4.198;2023-09-12T02:55:32;21.70;81.10
74617;DHT22;63123;50.906;4.198;2023-09-12T02:57:58;21.70;81.10
74617;DHT22;63123;50.906;4.198;2023-09-12T03:00:24;21.70;81.20
74617;DHT22;63123;50.906;4.198;2023-09-12T03:02:50;21.70;81.10
74617;DHT22;63123;50.906;4.198;2023-09-12T03:05:15;21.70;81.10
74617;DHT22;63123;50.906;4.198;2023-09-12T03:07:41;21.70;81.10
74617;DHT22;63123;50.906;4.198;2023-09-12T03:10:07;21.70;81.10
74617;DHT22;63123;50.906;4.198;2023-09-12T03:12:35;21.70;81.10
74617;DHT22;63123;50.906;4.198;2023-09-12T03:15:00;21.70;81.10
74617;DHT22;63123;50.906;4.198;2023-09-12T03:17:28;21.70;81.10
74617;DHT22;63123;50.906;4.198;2023-09-12T03:19:54;21.70;81.70
74617;DHT22;63123;50.906;4.198;2023-09-12T03:22:19;21.70;81.10
74617;DHT22;63123;50.906;4.198;2023-09-12T03:24:45;21.70;81.00
74617;DHT22;63123;50.906;4.198;2023-09-12T03:27:10;21.70;81.00
74617;DHT22;63123;50.906;4.198;2023-09-12T03:29:36;21.70;81.10
74617;DHT22;63123;50.906;4.198;2023-09-12T03:32:02;21.70;81.10
74617;DHT22;63123;50.906;4.198;2023-09-12T03:34:27;21.70;81.00
74617;DHT22;63123;50.906;4.198;2023-09-12T03:36:53;21.70;81.10
74617;DHT22;63123;50.906;4.198;2023-09-12T03:39:18;21.80;81.10
74617;DHT22;63123;50.906;4.198;2023-09-12T03:41:44;21.70;81.10
74617;DHT22;63123;50.906;4.198;2023-09-12T03:44:10;21.70;81.00
74617;DHT22;63123;50.906;4.198;2023-09-12T03:46:35;21.70;81.00
74617;DHT22;63123;50.906;4.198;2023-09-12T03:49:01;21.70;81.00
74617;DHT22;63123;50.906;4.198;2023-09-12T03:51:26;21.70;81.10
74617;DHT22;63123;50.906;4.198;2023-09-12T03:53:52;21.70;81.00
74617;DHT22;63123;50.906;4.198;2023-09-12T03:56:19;21.70;81.00
74617;DHT22;63123;50.906;4.198;2023-09-12T03:58:45;21.70;81.00
74617;DHT22;63123;50.906;4.198;2023-09-12T04:01:11;21.70;81.00
74617;DHT22;63123;50.906;4.198;2023-09-12T04:03:37;21.70;81.30
74617;DHT22;63123;50.906;4.198;2023-09-12T04:06:02;21.70;81.00
74617;DHT22;63123;50.906;4.198;2023-09-12T04:08:28;21.70;81.00
74617;DHT22;63123;50.906;4.198;2023-09-12T04:10:54;21.70;81.00
74617;DHT22;63123;50.906;4.198;2023-09-12T04:13:19;21.70;81.00
74617;DHT22;63123;50.906;4.198;2023-09-12T04:15:45;21.80;81.00
74617;DHT22;63123;50.906;4.198;2023-09-12T04:18:11;21.70;81.00
74617;DHT22;63123;50.906;4.198;2023-09-12T04:20:36;21.70;81.00
74617;DHT22;63123;50.906;4.198;2023-09-12T04:23:02;21.70;81.00
74617;DHT22;63123;50.906;4.198;2023-09-12T04:25:29;21.70;81.00
74617;DHT22;63123;50.906;4.198;2023-09-12T04:27:55;21.70;80.90
74617;DHT22;63123;50.906;4.198;2023-09-12T04:30:21;21.70;80.90
74617;DHT22;63123;50.906;4.198;2023-09-12T04:32:46;21.70;80.90
74617;DHT22;63123;50.906;4.198;2023-09-12T04:35:12;21.70;80.90
74617;DHT22;63123;50.906;4.198;2023-09-12T04:37:38;21.70;80.90
74617;DHT22;63123;50.906;4.198;2023-09-12T04:40:04;21.70;80.90
74617;DHT22;63123;50.906;4.198;2023-09-12T04:42:32;21.70;80.90
74617;DHT22;63123;50.906;4.198;2023-09-12T04:44:57;21.70;81.50
74617;DHT22;63123;50.906;4.198;2023-09-12T04:47:23;21.70;80.90
74617;DHT22;63123;50.906;4.198;2023-09-12T04:49:49;21.70;80.80
74617;DHT22;63123;50.906;4.198;2023-09-12T04:52:14;21.70;80.80
74617;DHT22;63123;50.906;4.198;2023-09-12T04:54:40;21.70;80.80
74617;DHT22;63123;50.906;4.198;2023-09-12T04:57:06;21.70;80.80
74617;DHT22;63123;50.906;4.198;2023-09-12T04:59:31;21.70;81.40
74617;DHT22;63123;50.906;4.198;2023-09-12T05:01:57;21.70;80.80
74617;DHT22;63123;50.906;4.198;2023-09-12T05:04:22;21.70;80.80
74617;DHT22;63123;50.906;4.198;2023-09-12T05:06:48;21.70;80.80
74617;DHT22;63123;50.906;4.198;2023-09-12T05:09:14;21.70;80.80
74617;DHT22;63123;50.906;4.198;2023-09-12T05:11:39;21.70;80.80
74617;DHT22;63123;50.906;4.198;2023-09-12T05:14:05;21.70;80.70
74617;DHT22;63123;50.906;4.198;2023-09-12T05:16:31;21.70;80.70
74617;DHT22;63123;50.906;4.198;2023-09-12T05:18:57;21.70;80.60
74617;DHT22;63123;50.906;4.198;2023-09-12T05:21:22;21.70;80.60
74617;DHT22;63123;50.906;4.198;2023-09-12T05:23:48;21.70;80.60
74617;DHT22;63123;50.906;4.198;2023-09-12T05:26:13;21.70;80.50
74617;DHT22;63123;50.906;4.198;2023-09-12T05:28:40;21.70;80.50
74617;DHT22;63123;50.906;4.198;2023-09-12T05:31:05;21.70;80.50
74617;DHT22;63123;50.906;4.198;2023-09-12T05:33:31;21.70;80.50
74617;DHT22;63123;50.906;4.198;2023-09-12T05:35:57;21.70;80.50
74617;DHT22;63123;50.906;4.198;2023-09-12T05:38:23;21.70;80.50
74617;DHT22;63123;50.906;4.198;2023-09-12T05:40:48;21.70;80.50
74617;DHT22;63123;50.906;4.198;2023-09-12T05:43:17;21.70;81.00
74617;DHT22;63123;50.906;4.198;2023-09-12T05:45:43;21.70;80.40
74617;DHT22;63123;50.906;4.198;2023-09-12T05:48:09;21.70;80.40
74617;DHT22;63123;50.906;4.198;2023-09-12T05:50:38;21.70;80.40
74617;DHT22;63123;50.906;4.198;2023-09-12T05:53:04;21.70;80.40
74617;DHT22;63123;50.906;4.198;2023-09-12T05:55:29;21.70;80.40
74617;DHT22;63123;50.906;4.198;2023-09-12T05:57:55;21.70;80.50
74617;DHT22;63123;50.906;4.198;2023-09-12T06:00:21;21.70;80.50
74617;DHT22;63123;50.906;4.198;2023-09-12T06:02:47;21.70;80.40
74617;DHT22;63123;50.906;4.198;2023-09-12T06:05:14;21.70;80.50
74617;DHT22;63123;50.906;4.198;2023-09-12T06:07:40;21.70;80.40
74617;DHT22;63123;50.906;4.198;2023-09-12T06:10:07;21.70;80.40
74617;DHT22;63123;50.906;4.198;2023-09-12T06:12:32;21.70;80.40
74617;DHT22;63123;50.906;4.198;2023-09-12T06:14:59;21.70;80.40
74617;DHT22;63123;50.906;4.198;2023-09-12T06:17:24;21.70;80.40
74617;DHT22;63123;50.906;4.198;2023-09-12T06:19:50;21.70;80.40
74617;DHT22;63123;50.906;4.198;2023-09-12T06:22:17;21.70;80.40
74617;DHT22;63123;50.906;4.198;2023-09-12T06:24:43;21.70;80.40
74617;DHT22;63123;50.906;4.198;2023-09-12T06:27:09;21.70;80.40
74617;DHT22;63123;50.906;4.198;2023-09-12T06:29:35;21.70;80.40
74617;DHT22;63123;50.906;4.198;2023-09-12T06:32:00;21.70;80.40
74617;DHT22;63123;50.906;4.198;2023-09-12T06:34:27;21.70;80.50
74617;DHT22;63123;50.906;4.198;2023-09-12T06:36:53;21.70;80.50
74617;DHT22;63123;50.906;4.198;2023-09-12T06:39:18;21.70;80.50
74617;DHT22;63123;50.906;4.198;2023-09-12T06:41:44;21.70;80.50
74617;DHT22;63123;50.906;4.198;2023-09-12T06:44:10;21.70;80.50
74617;DHT22;63123;50.906;4.198;2023-09-12T06:46:36;21.70;80.50
74617;DHT22;63123;50.906;4.198;2023-09-12T06:49:03;21.70;80.50
74617;DHT22;63123;50.906;4.198;2023-09-12T06:51:29;21.70;80.50
74617;DHT22;63123;50.906;4.198;2023-09-12T06:53:55;21.70;80.50
74617;DHT22;63123;50.906;4.198;2023-09-12T06:56:20;21.70;80.50
74617;DHT22;63123;50.906;4.198;2023-09-12T06:58:47;21.70;80.50
74617;DHT22;63123;50.906;4.198;2023-09-12T07:01:13;21.70;80.50
74617;DHT22;63123;50.906;4.198;2023-09-12T07:03:39;21.70;80.60
74617;DHT22;63123;50.906;4.198;2023-09-12T07:06:05;21.70;80.60
74617;DHT22;63123;50.906;4.198;2023-09-12T07:08:31;21.70;80.60
74617;DHT22;63123;50.906;4.198;2023-09-12T07:10:56;21.70;80.60
74617;DHT22;63123;50.906;4.198;2023-09-12T07:13:23;21.70;80.60
74617;DHT22;63123;50.906;4.198;2023-09-12T07:15:50;21.70;80.60
74617;DHT22;63123;50.906;4.198;2023-09-12T07:18:16;21.70;80.60
74617;DHT22;63123;50.906;4.198;2023-09-12T07:20:42;21.70;80.60
74617;DHT22;63123;50.906;4.198;2023-09-12T07:23:08;21.70;80.60
74617;DHT22;63123;50.906;4.198;2023-09-12T07:25:40;21.70;80.60
74617;DHT22;63123;50.906;4.198;2023-09-12T07:28:08;21.70;80.60
74617;DHT22;63123;50.906;4.198;2023-09-12T07:30:33;21.70;80.60
74617;DHT22;63123;50.906;4.198;2023-09-12T07:32:59;21.70;80.60
74617;DHT22;63123;50.906;4.198;2023-09-12T07:35:24;21.70;80.60
74617;DHT22;63123;50.906;4.198;2023-09-12T07:37:50;21.70;80.60
74617;DHT22;63123;50.906;4.198;2023-09-12T07:40:16;21.70;80.60
74617;DHT22;63123;50.906;4.198;2023-09-12T07:42:42;21.70;80.60
74617;DHT22;63123;50.906;4.198;2023-09-12T07:45:08;21.70;80.60
74617;DHT22;63123;50.906;4.198;2023-09-12T07:47:34;21.70;80.60
74617;DHT22;63123;50.906;4.198;2023-09-12T07:50:00;21.70;80.60
74617;DHT22;63123;50.906;4.198;2023-09-12T07:52:30;21.70;80.60
74617;DHT22;63123;50.906;4.198;2023-09-12T07:55:03;21.70;80.60
74617;DHT22;63123;50.906;4.198;2023-09-12T07:57:29;21.70;80.60
74617;DHT22;63123;50.906;4.198;2023-09-12T07:59:58;21.70;80.60
74617;DHT22;63123;50.906;4.198;2023-09-12T08:02:24;21.70;80.60
74617;DHT22;63123;50.906;4.198;2023-09-12T08:04:50;21.70;80.60
74617;DHT22;63123;50.906;4.198;2023-09-12T08:07:22;21.70;80.60
74617;DHT22;63123;50.906;4.198;2023-09-12T08:09:58;21.70;80.60
74617;DHT22;63123;50.906;4.198;2023-09-12T08:12:25;21.70;80.60
74617;DHT22;63123;50.906;4.198;2023-09-12T08:14:51;21.70;80.60
74617;DHT22;63123;50.906;4.198;2023-09-12T08:17:17;21.70;80.60
74617;DHT22;63123;50.906;4.198;2023-09-12T08:19:43;21.70;80.60
74617;DHT22;63123;50.906;4.198;2023-09-12T08:22:10;21.70;80.60
74617;DHT22;63123;50.906;4.198;2023-09-12T08:24:36;21.70;80.60
74617;DHT22;63123;50.906;4.198;2023-09-12T08:27:03;21.70;80.60
74617;DHT22;63123;50.906;4.198;2023-09-12T08:29:29;21.70;80.60
74617;DHT22;63123;50.906;4.198;2023-09-12T08:31:55;21.70;80.60
74617;DHT22;63123;50.906;4.198;2023-09-12T08:34:21;21.70;80.60
74617;DHT22;63123;50.906;4.198;2023-09-12T08:36:47;21.70;80.50
74617;DHT22;63123;50.906;4.198;2023-09-12T08:39:15;21.70;80.50
74617;DHT22;63123;50.906;4.198;2023-09-12T08:41:42;21.70;80.40
74617;DHT22;63123;50.906;4.198;2023-09-12T08:44:08;21.70;80.40
74617;DHT22;63123;50.906;4.198;2023-09-12T08:46:34;21.70;80.40
74617;DHT22;63123;50.906;4.198;2023-09-12T08:49:00;21.80;80.40
74617;DHT22;63123;50.906;4.198;2023-09-12T08:51:26;21.80;80.40
74617;DHT22;63123;50.906;4.198;2023-09-12T08:53:52;21.80;80.30
74617;DHT22;63123;50.906;4.198;2023-09-12T08:56:18;21.80;80.30
74617;DHT22;63123;50.906;4.198;2023-09-12T08:58:44;21.80;80.30
74617;DHT22;63123;50.906;4.198;2023-09-12T09:01:12;21.80;80.30
74617;DHT22;63123;50.906;4.198;2023-09-12T09:03:41;21.80;80.40
74617;DHT22;63123;50.906;4.198;2023-09-12T09:06:07;21.80;80.30
74617;DHT22;63123;50.906;4.198;2023-09-12T09:08:34;21.80;80.30
74617;DHT22;63123;50.906;4.198;2023-09-12T09:11:00;21.80;80.30
74617;DHT22;63123;50.906;4.198;2023-09-12T09:13:31;21.80;80.20
74617;DHT22;63123;50.906;4.198;2023-09-12T09:16:13;21.80;80.20
74617;DHT22;63123;50.906;4.198;2023-09-12T09:18:55;21.80;80.30
74617;DHT22;63123;50.906;4.198;2023-09-12T09:21:23;21.80;80.20
74617;DHT22;63123;50.906;4.198;2023-09-12T09:23:54;21.80;80.20
74617;DHT22;63123;50.906;4.198;2023-09-12T09:26:20;21.90;80.20
74617;DHT22;63123;50.906;4.198;2023-09-12T09:29:01;21.90;80.20
74617;DHT22;63123;50.906;4.198;2023-09-12T09:31:27;21.90;80.20
74617;DHT22;63123;50.906;4.198;2023-09-12T09:33:53;21.90;80.20
74617;DHT22;63123;50.906;4.198;2023-09-12T09:36:20;21.90;80.10
74617;DHT22;63123;50.906;4.198;2023-09-12T09:38:46;21.90;80.00
74617;DHT22;63123;50.906;4.198;2023-09-12T09:41:11;21.90;80.00
74617;DHT22;63123;50.906;4.198;2023-09-12T09:43:37;21.90;80.00
74617;DHT22;63123;50.906;4.198;2023-09-12T09:46:03;22.00;80.00
74617;DHT22;63123;50.906;4.198;2023-09-12T09:48:29;22.00;79.90
74617;DHT22;63123;50.906;4.198;2023-09-12T09:51:01;22.00;79.90
74617;DHT22;63123;50.906;4.198;2023-09-12T09:53:31;22.00;79.80
74617;DHT22;63123;50.906;4.198;2023-09-12T09:56:11;22.00;79.80
74617;DHT22;63123;50.906;4.198;2023-09-12T09:58:48;22.00;79.80
74617;DHT22;63123;50.906;4.198;2023-09-12T10:01:22;22.00;79.90
74617;DHT22;63123;50.906;4.198;2023-09-12T10:03:49;22.00;79.90
74617;DHT22;63123;50.906;4.198;2023-09-12T10:06:19;21.90;79.90
74617;DHT22;63123;50.906;4.198;2023-09-12T10:08:49;21.90;79.90
74617;DHT22;63123;50.906;4.198;2023-09-12T10:11:16;21.90;79.90
74617;DHT22;63123;50.906;4.198;2023-09-12T10:14:09;21.90;80.00
74617;DHT22;63123;50.906;4.198;2023-09-12T10:16:57;21.90;80.00
74617;DHT22;63123;50.906;4.198;2023-09-12T10:19:26;21.90;80.00
74617;DHT22;63123;50.906;4.198;2023-09-12T10:24:30;21.90;79.70
74617;DHT22;63123;50.906;4.198;2023-09-12T10:26:57;22.00;79.70
74617;DHT22;63123;50.906;4.198;2023-09-12T10:29:23;22.00;79.70
74617;DHT22;63123;50.906;4.198;2023-09-12T10:31:49;22.00;79.70
74617;DHT22;63123;50.906;4.198;2023-09-12T10:34:15;22.00;80.40
74617;DHT22;63123;50.906;4.198;2023-09-12T10:36:43;22.00;79.60
74617;DHT22;63123;50.906;4.198;2023-09-12T10:39:10;22.00;79.50
74617;DHT22;63123;50.906;4.198;2023-09-12T10:41:38;22.00;79.50
74617;DHT22;63123;50.906;4.198;2023-09-12T10:44:10;22.00;79.40
74617;DHT22;63123;50.906;4.198;2023-09-12T10:46:40;22.00;79.50
74617;DHT22;63123;50.906;4.198;2023-09-12T10:49:10;22.00;79.30
74617;DHT22;63123;50.906;4.198;2023-09-12T10:51:40;22.00;79.10
74617;DHT22;63123;50.906;4.198;2023-09-12T10:54:06;22.00;79.20
74617;DHT22;63123;50.906;4.198;2023-09-12T10:56:33;22.00;80.00
74617;DHT22;63123;50.906;4.198;2023-09-12T11:01:39;21.90;79.60
74617;DHT22;63123;50.906;4.198;2023-09-12T11:06:53;22.00;79.10
74617;DHT22;63123;50.906;4.198;2023-09-12T11:09:23;21.90;79.10
74617;DHT22;63123;50.906;4.198;2023-09-12T11:14:19;21.90;79.60
74617;DHT22;63123;50.906;4.198;2023-09-12T11:19:50;21.90;78.90
74617;DHT22;63123;50.906;4.198;2023-09-12T11:22:21;21.90;78.90
74617;DHT22;63123;50.906;4.198;2023-09-12T11:24:46;21.90;78.90
74617;DHT22;63123;50.906;4.198;2023-09-12T11:27:13;21.90;78.80
74617;DHT22;63123;50.906;4.198;2023-09-12T11:29:39;21.90;78.80
74617;DHT22;63123;50.906;4.198;2023-09-12T11:32:06;21.90;78.90
74617;DHT22;63123;50.906;4.198;2023-09-12T11:34:37;21.90;78.90
74617;DHT22;63123;50.906;4.198;2023-09-12T11:37:03;21.90;78.80
74617;DHT22;63123;50.906;4.198;2023-09-12T11:39:32;21.90;78.80
74617;DHT22;63123;50.906;4.198;2023-09-12T11:41:59;21.90;78.70
74617;DHT22;63123;50.906;4.198;2023-09-12T11:44:26;21.90;79.30
74617;DHT22;63123;50.906;4.198;2023-09-12T11:46:52;21.90;78.70
74617;DHT22;63123;50.906;4.198;2023-09-12T11:49:19;21.90;78.60
74617;DHT22;63123;50.906;4.198;2023-09-12T11:51:52;21.90;78.60
74617;DHT22;63123;50.906;4.198;2023-09-12T11:54:20;22.00;78.70
74617;DHT22;63123;50.906;4.198;2023-09-12T11:56:49;21.90;78.70
74617;DHT22;63123;50.906;4.198;2023-09-12T11:59:15;21.90;78.70
74617;DHT22;63123;50.906;4.198;2023-09-12T12:01:44;21.90;78.70
74617;DHT22;63123;50.906;4.198;2023-09-12T12:04:10;22.00;79.20
74617;DHT22;63123;50.906;4.198;2023-09-12T12:06:36;21.90;78.90
74617;DHT22;63123;50.906;4.198;2023-09-12T12:09:02;21.90;78.80
74617;DHT22;63123;50.906;4.198;2023-09-12T12:11:30;21.90;78.70
74617;DHT22;63123;50.906;4.198;2023-09-12T12:13:57;21.90;78.70
74617;DHT22;63123;50.906;4.198;2023-09-12T12:16:24;22.00;78.90
74617;DHT22;63123;50.906;4.198;2023-09-12T12:18:50;21.90;78.80
74617;DHT22;63123;50.906;4.198;2023-09-12T12:21:20;21.90;78.80
74617;DHT22;63123;50.906;4.198;2023-09-12T12:23:45;21.90;78.70
74617;DHT22;63123;50.906;4.198;2023-09-12T12:26:11;21.90;78.80
74617;DHT22;63123;50.906;4.198;2023-09-12T12:28:37;21.90;78.80
74617;DHT22;63123;50.906;4.198;2023-09-12T12:31:04;21.90;78.80
74617;DHT22;63123;50.906;4.198;2023-09-12T12:33:30;21.90;78.80
74617;DHT22;63123;50.906;4.198;2023-09-12T12:36:03;21.90;78.90
74617;DHT22;63123;50.906;4.198;2023-09-12T12:38:37;21.90;78.90
74617;DHT22;63123;50.906;4.198;2023-09-12T12:41:03;21.90;78.90
74617;DHT22;63123;50.906;4.198;2023-09-12T12:43:30;21.90;78.90
74617;DHT22;63123;50.906;4.198;2023-09-12T12:45:58;21.90;78.90
74617;DHT22;63123;50.906;4.198;2023-09-12T12:48:34;21.90;78.80
74617;DHT22;63123;50.906;4.198;2023-09-12T12:51:21;21.90;78.70
74617;DHT22;63123;50.906;4.198;2023-09-12T12:53:53;21.90;78.80
74617;DHT22;63123;50.906;4.198;2023-09-12T12:56:37;21.90;78.70
74617;DHT22;63123;50.906;4.198;2023-09-12T12:59:06;21.90;78.50
74617;DHT22;63123;50.906;4.198;2023-09-12T13:01:34;21.90;78.70
74617;DHT22;63123;50.906;4.198;2023-09-12T13:04:00;21.90;78.90
74617;DHT22;63123;50.906;4.198;2023-09-12T13:06:26;21.90;78.90
74617;DHT22;63123;50.906;4.198;2023-09-12T13:08:53;21.90;78.80
74617;DHT22;63123;50.906;4.198;2023-09-12T13:11:19;21.90;78.70
74617;DHT22;63123;50.906;4.198;2023-09-12T13:13:47;21.90;78.90
74617;DHT22;63123;50.906;4.198;2023-09-12T13:16:15;21.90;78.80
74617;DHT22;63123;50.906;4.198;2023-09-12T13:18:41;21.90;78.90
74617;DHT22;63123;50.906;4.198;2023-09-12T13:21:07;21.90;78.90
74617;DHT22;63123;50.906;4.198;2023-09-12T13:23:39;21.90;78.90
74617;DHT22;63123;50.906;4.198;2023-09-12T13:26:07;21.90;78.90
74617;DHT22;63123;50.906;4.198;2023-09-12T13:28:33;21.90;78.90
74617;DHT22;63123;50.906;4.198;2023-09-12T13:30:58;21.90;79.00
74617;DHT22;63123;50.906;4.198;2023-09-12T13:33:24;21.90;79.00
74617;DHT22;63123;50.906;4.198;2023-09-12T13:35:50;21.90;79.00
74617;DHT22;63123;50.906;4.198;2023-09-12T13:38:16;21.90;79.00
74617;DHT22;63123;50.906;4.198;2023-09-12T13:40:44;21.90;79.00
74617;DHT22;63123;50.906;4.198;2023-09-12T13:43:11;21.90;79.00
74617;DHT22;63123;50.906;4.198;2023-09-12T13:45:37;21.90;79.00
74617;DHT22;63123;50.906;4.198;2023-09-12T13:48:03;21.90;79.00
74617;DHT22;63123;50.906;4.198;2023-09-12T13:50:30;21.90;78.90
74617;DHT22;63123;50.906;4.198;2023-09-12T13:53:00;21.90;79.00
74617;DHT22;63123;50.906;4.198;2023-09-12T13:55:29;21.90;79.30
74617;DHT22;63123;50.906;4.198;2023-09-12T13:57:55;21.90;79.20
74617;DHT22;63123;50.906;4.198;2023-09-12T14:00:20;21.90;79.10
74617;DHT22;63123;50.906;4.198;2023-09-12T14:02:46;21.90;79.00
74617;DHT22;63123;50.906;4.198;2023-09-12T14:05:12;21.90;79.00
74617;DHT22;63123;50.906;4.198;2023-09-12T14:07:38;21.90;78.90
74617;DHT22;63123;50.906;4.198;2023-09-12T14:10:06;21.90;78.90
74617;DHT22;63123;50.906;4.198;2023-09-12T14:12:31;21.90;78.90
74617;DHT22;63123;50.906;4.198;2023-09-12T14:14:57;21.90;78.90
74617;DHT22;63123;50.906;4.198;2023-09-12T14:17:23;21.90;79.00
74617;DHT22;63123;50.906;4.198;2023-09-12T14:19:48;21.90;79.00
74617;DHT22;63123;50.906;4.198;2023-09-12T14:22:14;21.90;79.10
74617;DHT22;63123;50.906;4.198;2023-09-12T14:24:40;21.90;79.00
74617;DHT22;63123;50.906;4.198;2023-09-12T14:27:06;21.90;79.00
74617;DHT22;63123;50.906;4.198;2023-09-12T14:29:32;21.90;79.20
74617;DHT22;63123;50.906;4.198;2023-09-12T14:31:57;21.90;79.10
74617;DHT22;63123;50.906;4.198;2023-09-12T14:34:27;21.90;79.10
74617;DHT22;63123;50.906;4.198;2023-09-12T14:36:55;21.90;79.10
74617;DHT22;63123;50.906;4.198;2023-09-12T14:39:22;21.90;79.20
74617;DHT22;63123;50.906;4.198;2023-09-12T14:41:48;21.90;79.20
74617;DHT22;63123;50.906;4.198;2023-09-12T14:44:21;21.90;79.10
74617;DHT22;63123;50.906;4.198;2023-09-12T14:46:46;21.90;79.10
74617;DHT22;63123;50.906;4.198;2023-09-12T14:49:12;21.90;79.20
74617;DHT22;63123;50.906;4.198;2023-09-12T14:51:38;21.90;79.20
74617;DHT22;63123;50.906;4.198;2023-09-12T14:54:04;21.90;79.20
74617;DHT22;63123;50.906;4.198;2023-09-12T14:56:30;21.90;79.20
74617;DHT22;63123;50.906;4.198;2023-09-12T14:58:56;21.90;79.20
74617;DHT22;63123;50.906;4.198;2023-09-12T15:01:22;21.90;79.20
74617;DHT22;63123;50.906;4.198;2023-09-12T15:03:49;21.90;79.30
74617;DHT22;63123;50.906;4.198;2023-09-12T15:06:14;21.90;79.30
74617;DHT22;63123;50.906;4.198;2023-09-12T15:08:40;21.90;79.30
74617;DHT22;63123;50.906;4.198;2023-09-12T15:11:06;21.90;79.40
74617;DHT22;63123;50.906;4.198;2023-09-12T15:13:31;21.90;79.40
74617;DHT22;63123;50.906;4.198;2023-09-12T15:15:57;21.90;79.40
74617;DHT22;63123;50.906;4.198;2023-09-12T15:18:23;21.90;79.40
74617;DHT22;63123;50.906;4.198;2023-09-12T15:20:49;21.90;79.40
74617;DHT22;63123;50.906;4.198;2023-09-12T15:23:16;21.90;79.40
74617;DHT22;63123;50.906;4.198;2023-09-12T15:25:42;21.90;79.40
74617;DHT22;63123;50.906;4.198;2023-09-12T15:28:07;21.90;79.40
74617;DHT22;63123;50.906;4.198;2023-09-12T15:30:33;21.90;79.40
74617;DHT22;63123;50.906;4.198;2023-09-12T15:32:59;21.90;79.40
74617;DHT22;63123;50.906;4.198;2023-09-12T15:35:24;21.90;79.40
74617;DHT22;63123;50.906;4.198;2023-09-12T15:37:50;21.90;79.40
74617;DHT22;63123;50.906;4.198;2023-09-12T15:40:16;21.90;79.50
74617;DHT22;63123;50.906;4.198;2023-09-12T15:42:42;21.90;79.50
74617;DHT22;63123;50.906;4.198;2023-09-12T15:45:08;21.90;79.40
74617;DHT22;63123;50.906;4.198;2023-09-12T15:47:35;21.90;79.50
74617;DHT22;63123;50.906;4.198;2023-09-12T15:50:01;21.90;79.40